sensor_id;sensor_type;location;lat;lon;timestamp;P1;durP1;ratioP1;P2;durP2;ratioP2
72904;SDS011;61048;52.162;4.516;2022-11-20T00:00:17;7.60;;;2.45;;
72904;SDS011;61048;52.162;4.516;2022-11-20T00:02:44;6.25;;;1.73;;
72904;SDS011;61048;52.162;4.516;2022-11-20T00:05:11;4.53;;;1.65;;
72904;SDS011;61048;52.162;4.516;2022-11-20T00:07:38;5.40;;;2.40;;
72904;SDS011;61048;52.162;4.516;2022-11-20T00:10:05;5.63;;;1.90;;
72904;SDS011;61048;52.162;4.516;2022-11-20T00:12:32;3.75;;;1.30;;
72904;SDS011;61048;52.162;4.516;2022-11-20T00:14:59;6.47;;;1.45;;
72904;SDS011;61048;52.162;4.516;2022-11-20T00:17:27;6.63;;;2.53;;
72904;SDS011;61048;52.162;4.516;2022-11-20T00:19:54;6.25;;;2.10;;
72904;SDS011;61048;52.162;4.516;2022-11-20T00:22:21;4.47;;;1.65;;
72904;SDS011;61048;52.162;4.516;2022-11-20T00:24:48;4.35;;;1.33;;
72904;SDS011;61048;52.162;4.516;2022-11-20T00:27:15;5.60;;;2.10;;
72904;SDS011;61048;52.162;4.516;2022-11-20T00:29:42;5.03;;;2.45;;
72904;SDS011;61048;52.162;4.516;2022-11-20T00:32:08;6.88;;;2.33;;
72904;SDS011;61048;52.162;4.516;2022-11-20T00:34:36;3.28;;;1.65;;
72904;SDS011;61048;52.162;4.516;2022-11-20T00:37:04;4.32;;;2.03;;
72904;SDS011;61048;52.162;4.516;2022-11-20T00:39:31;4.70;;;2.20;;
72904;SDS011;61048;52.162;4.516;2022-11-20T00:41:58;4.53;;;3.35;;
72904;SDS011;61048;52.162;4.516;2022-11-20T00:44:24;5.85;;;2.70;;
72904;SDS011;61048;52.162;4.516;2022-11-20T00:46:51;9.98;;;2.65;;
72904;SDS011;61048;52.162;4.516;2022-11-20T00:49:18;5.03;;;1.75;;
72904;SDS011;61048;52.162;4.516;2022-11-20T00:51:46;3.95;;;1.95;;
72904;SDS011;61048;52.162;4.516;2022-11-20T00:54:13;5.03;;;2.30;;
72904;SDS011;61048;52.162;4.516;2022-11-20T00:56:40;7.70;;;2.47;;
72904;SDS011;61048;52.162;4.516;2022-11-20T00:59:08;4.40;;;1.75;;
72904;SDS011;61048;52.162;4.516;2022-11-20T01:01:36;6.82;;;1.75;;
72904;SDS011;61048;52.162;4.516;2022-11-20T01:04:03;3.70;;;1.75;;
72904;SDS011;61048;52.162;4.516;2022-11-20T01:06:30;10.27;;;1.60;;
72904;SDS011;61048;52.162;4.516;2022-11-20T01:09:00;3.22;;;1.38;;
72904;SDS011;61048;52.162;4.516;2022-11-20T01:11:29;4.15;;;2.33;;
72904;SDS011;61048;52.162;4.516;2022-11-20T01:13:58;5.90;;;1.42;;
72904;SDS011;61048;52.162;4.516;2022-11-20T01:16:26;3.22;;;1.25;;
72904;SDS011;61048;52.162;4.516;2022-11-20T01:18:56;4.22;;;1.30;;
72904;SDS011;61048;52.162;4.516;2022-11-20T01:21:25;3.88;;;2.38;;
72904;SDS011;61048;52.162;4.516;2022-11-20T01:23:53;4.45;;;2.63;;
72904;SDS011;61048;52.162;4.516;2022-11-20T01:26:22;2.97;;;1.38;;
72904;SDS011;61048;52.162;4.516;2022-11-20T01:28:50;4.10;;;2.22;;
72904;SDS011;61048;52.162;4.516;2022-11-20T01:31:19;4.60;;;2.47;;
72904;SDS011;61048;52.162;4.516;2022-11-20T01:33:48;5.40;;;2.10;;
72904;SDS011;61048;52.162;4.516;2022-11-20T01:36:17;3.17;;;1.80;;
72904;SDS011;61048;52.162;4.516;2022-11-20T01:38:45;3.97;;;2.20;;
72904;SDS011;61048;52.162;4.516;2022-11-20T01:41:13;4.15;;;1.60;;
72904;SDS011;61048;52.162;4.516;2022-11-20T01:44:03;3.10;;;1.85;;
72904;SDS011;61048;52.162;4.516;2022-11-20T01:46:30;3.83;;;1.27;;
72904;SDS011;61048;52.162;4.516;2022-11-20T01:48:59;5.05;;;2.13;;
72904;SDS011;61048;52.162;4.516;2022-11-20T01:51:31;2.40;;;1.15;;
72904;SDS011;61048;52.162;4.516;2022-11-20T01:54:02;4.35;;;2.30;;
72904;SDS011;61048;52.162;4.516;2022-11-20T01:56:33;3.83;;;1.38;;
72904;SDS011;61048;52.162;4.516;2022-11-20T01:59:05;3.28;;;1.73;;
72904;SDS011;61048;52.162;4.516;2022-11-20T02:01:34;3.17;;;1.60;;
72904;SDS011;61048;52.162;4.516;2022-11-20T02:04:04;3.85;;;2.00;;
72904;SDS011;61048;52.162;4.516;2022-11-20T02:06:32;2.25;;;1.02;;
72904;SDS011;61048;52.162;4.516;2022-11-20T02:09:02;3.88;;;1.80;;
72904;SDS011;61048;52.162;4.516;2022-11-20T02:11:29;2.67;;;1.88;;
72904;SDS011;61048;52.162;4.516;2022-11-20T02:13:56;2.83;;;1.85;;
72904;SDS011;61048;52.162;4.516;2022-11-20T02:16:25;3.80;;;1.50;;
72904;SDS011;61048;52.162;4.516;2022-11-20T02:18:54;2.67;;;1.98;;
72904;SDS011;61048;52.162;4.516;2022-11-20T02:21:30;3.55;;;1.70;;
72904;SDS011;61048;52.162;4.516;2022-11-20T02:24:05;2.40;;;1.65;;
72904;SDS011;61048;52.162;4.516;2022-11-20T02:26:36;3.47;;;1.30;;
72904;SDS011;61048;52.162;4.516;2022-11-20T02:29:07;4.28;;;1.83;;
72904;SDS011;61048;52.162;4.516;2022-11-20T02:31:38;2.60;;;1.52;;
72904;SDS011;61048;52.162;4.516;2022-11-20T02:34:07;5.03;;;2.08;;
72904;SDS011;61048;52.162;4.516;2022-11-20T02:36:34;3.40;;;1.92;;
72904;SDS011;61048;52.162;4.516;2022-11-20T02:39:03;3.72;;;1.73;;
72904;SDS011;61048;52.162;4.516;2022-11-20T02:41:32;3.47;;;1.77;;
72904;SDS011;61048;52.162;4.516;2022-11-20T02:44:00;2.88;;;2.05;;
72904;SDS011;61048;52.162;4.516;2022-11-20T02:46:27;3.03;;;1.63;;
72904;SDS011;61048;52.162;4.516;2022-11-20T02:48:54;2.70;;;1.58;;
72904;SDS011;61048;52.162;4.516;2022-11-20T02:51:21;3.85;;;2.05;;
72904;SDS011;61048;52.162;4.516;2022-11-20T02:53:48;3.55;;;2.05;;
72904;SDS011;61048;52.162;4.516;2022-11-20T02:56:16;4.45;;;1.35;;
72904;SDS011;61048;52.162;4.516;2022-11-20T02:58:43;3.78;;;1.67;;
72904;SDS011;61048;52.162;4.516;2022-11-20T03:01:10;3.83;;;2.15;;
72904;SDS011;61048;52.162;4.516;2022-11-20T03:03:37;2.30;;;1.00;;
72904;SDS011;61048;52.162;4.516;2022-11-20T03:06:04;2.65;;;1.77;;
72904;SDS011;61048;52.162;4.516;2022-11-20T03:08:31;3.83;;;0.88;;
72904;SDS011;61048;52.162;4.516;2022-11-20T03:11:01;4.00;;;1.02;;
72904;SDS011;61048;52.162;4.516;2022-11-20T03:13:30;3.08;;;1.90;;
72904;SDS011;61048;52.162;4.516;2022-11-20T03:15:57;2.13;;;1.20;;
72904;SDS011;61048;52.162;4.516;2022-11-20T03:18:24;3.85;;;1.23;;
72904;SDS011;61048;52.162;4.516;2022-11-20T03:20:56;3.47;;;1.77;;
72904;SDS011;61048;52.162;4.516;2022-11-20T03:23:24;3.45;;;1.80;;
72904;SDS011;61048;52.162;4.516;2022-11-20T03:25:50;2.75;;;1.80;;
72904;SDS011;61048;52.162;4.516;2022-11-20T03:28:17;2.63;;;1.52;;
72904;SDS011;61048;52.162;4.516;2022-11-20T03:30:46;2.78;;;1.70;;
72904;SDS011;61048;52.162;4.516;2022-11-20T03:33:12;2.17;;;1.83;;
72904;SDS011;61048;52.162;4.516;2022-11-20T03:35:39;2.95;;;1.50;;
72904;SDS011;61048;52.162;4.516;2022-11-20T03:38:06;2.75;;;1.40;;
72904;SDS011;61048;52.162;4.516;2022-11-20T03:40:33;2.55;;;1.52;;
72904;SDS011;61048;52.162;4.516;2022-11-20T03:43:01;2.38;;;1.73;;
72904;SDS011;61048;52.162;4.516;2022-11-20T03:45:27;2.83;;;1.95;;
72904;SDS011;61048;52.162;4.516;2022-11-20T03:47:56;2.72;;;2.22;;
72904;SDS011;61048;52.162;4.516;2022-11-20T03:50:23;3.00;;;1.63;;
72904;SDS011;61048;52.162;4.516;2022-11-20T03:52:50;1.83;;;0.95;;
72904;SDS011;61048;52.162;4.516;2022-11-20T03:55:16;3.35;;;2.13;;
72904;SDS011;61048;52.162;4.516;2022-11-20T03:57:43;2.83;;;1.77;;
72904;SDS011;61048;52.162;4.516;2022-11-20T04:00:11;2.20;;;1.40;;
72904;SDS011;61048;52.162;4.516;2022-11-20T04:02:38;2.17;;;1.65;;
72904;SDS011;61048;52.162;4.516;2022-11-20T04:05:07;2.72;;;1.92;;
72904;SDS011;61048;52.162;4.516;2022-11-20T04:07:34;2.00;;;1.50;;
72904;SDS011;61048;52.162;4.516;2022-11-20T04:10:01;2.63;;;1.90;;
72904;SDS011;61048;52.162;4.516;2022-11-20T04:12:31;2.65;;;0.95;;
72904;SDS011;61048;52.162;4.516;2022-11-20T04:14:59;2.67;;;1.00;;
72904;SDS011;61048;52.162;4.516;2022-11-20T04:17:26;2.60;;;1.77;;
72904;SDS011;61048;52.162;4.516;2022-11-20T04:19:52;2.92;;;2.10;;
72904;SDS011;61048;52.162;4.516;2022-11-20T04:22:21;3.03;;;1.60;;
72904;SDS011;61048;52.162;4.516;2022-11-20T04:24:48;2.55;;;1.88;;
72904;SDS011;61048;52.162;4.516;2022-11-20T04:27:14;2.45;;;1.02;;
72904;SDS011;61048;52.162;4.516;2022-11-20T04:29:41;2.40;;;1.70;;
72904;SDS011;61048;52.162;4.516;2022-11-20T04:32:08;2.75;;;1.75;;
72904;SDS011;61048;52.162;4.516;2022-11-20T04:34:35;2.65;;;1.85;;
72904;SDS011;61048;52.162;4.516;2022-11-20T04:37:02;3.20;;;1.90;;
72904;SDS011;61048;52.162;4.516;2022-11-20T04:39:31;2.55;;;1.10;;
72904;SDS011;61048;52.162;4.516;2022-11-20T04:41:58;2.30;;;1.50;;
72904;SDS011;61048;52.162;4.516;2022-11-20T04:44:39;3.28;;;2.13;;
72904;SDS011;61048;52.162;4.516;2022-11-20T04:47:06;2.25;;;1.63;;
72904;SDS011;61048;52.162;4.516;2022-11-20T04:49:33;4.78;;;1.02;;
72904;SDS011;61048;52.162;4.516;2022-11-20T04:51:59;3.20;;;1.95;;
72904;SDS011;61048;52.162;4.516;2022-11-20T04:54:26;2.28;;;0.80;;
72904;SDS011;61048;52.162;4.516;2022-11-20T04:56:55;2.63;;;1.60;;
72904;SDS011;61048;52.162;4.516;2022-11-20T04:59:22;3.28;;;1.00;;
72904;SDS011;61048;52.162;4.516;2022-11-20T05:01:48;1.95;;;1.00;;
72904;SDS011;61048;52.162;4.516;2022-11-20T05:04:15;1.73;;;1.00;;
72904;SDS011;61048;52.162;4.516;2022-11-20T05:06:42;5.15;;;2.30;;
72904;SDS011;61048;52.162;4.516;2022-11-20T05:09:10;2.67;;;1.92;;
72904;SDS011;61048;52.162;4.516;2022-11-20T05:11:37;2.42;;;1.83;;
72904;SDS011;61048;52.162;4.516;2022-11-20T05:14:06;2.35;;;1.40;;
72904;SDS011;61048;52.162;4.516;2022-11-20T05:16:33;3.05;;;1.65;;
72904;SDS011;61048;52.162;4.516;2022-11-20T05:19:01;1.95;;;0.98;;
72904;SDS011;61048;52.162;4.516;2022-11-20T05:21:29;2.38;;;1.00;;
72904;SDS011;61048;52.162;4.516;2022-11-20T05:23:57;2.30;;;1.60;;
72904;SDS011;61048;52.162;4.516;2022-11-20T05:26:24;2.83;;;1.92;;
72904;SDS011;61048;52.162;4.516;2022-11-20T05:28:51;2.15;;;1.10;;
72904;SDS011;61048;52.162;4.516;2022-11-20T05:31:20;2.72;;;1.08;;
72904;SDS011;61048;52.162;4.516;2022-11-20T05:33:48;1.92;;;1.52;;
72904;SDS011;61048;52.162;4.516;2022-11-20T05:36:15;2.08;;;0.90;;
72904;SDS011;61048;52.162;4.516;2022-11-20T05:38:43;1.92;;;1.45;;
72904;SDS011;61048;52.162;4.516;2022-11-20T05:41:11;2.22;;;1.48;;
72904;SDS011;61048;52.162;4.516;2022-11-20T05:43:40;2.67;;;1.90;;
72904;SDS011;61048;52.162;4.516;2022-11-20T05:46:09;5.40;;;1.20;;
72904;SDS011;61048;52.162;4.516;2022-11-20T05:48:38;1.88;;;1.40;;
72904;SDS011;61048;52.162;4.516;2022-11-20T05:51:07;1.83;;;1.27;;
72904;SDS011;61048;52.162;4.516;2022-11-20T05:53:35;2.10;;;1.65;;
72904;SDS011;61048;52.162;4.516;2022-11-20T05:56:03;2.40;;;2.00;;
72904;SDS011;61048;52.162;4.516;2022-11-20T05:58:31;4.40;;;1.90;;
72904;SDS011;61048;52.162;4.516;2022-11-20T06:01:02;2.30;;;1.30;;
72904;SDS011;61048;52.162;4.516;2022-11-20T06:03:31;5.05;;;1.65;;
72904;SDS011;61048;52.162;4.516;2022-11-20T06:06:00;2.65;;;1.75;;
72904;SDS011;61048;52.162;4.516;2022-11-20T06:08:27;5.80;;;1.75;;
72904;SDS011;61048;52.162;4.516;2022-11-20T06:10:54;3.22;;;1.00;;
72904;SDS011;61048;52.162;4.516;2022-11-20T06:13:21;2.05;;;1.67;;
72904;SDS011;61048;52.162;4.516;2022-11-20T06:15:49;2.97;;;1.60;;
72904;SDS011;61048;52.162;4.516;2022-11-20T06:18:16;2.90;;;1.73;;
72904;SDS011;61048;52.162;4.516;2022-11-20T06:20:42;3.17;;;1.58;;
72904;SDS011;61048;52.162;4.516;2022-11-20T06:23:11;4.47;;;1.27;;
72904;SDS011;61048;52.162;4.516;2022-11-20T06:25:38;3.47;;;1.85;;
72904;SDS011;61048;52.162;4.516;2022-11-20T06:28:05;3.67;;;2.05;;
72904;SDS011;61048;52.162;4.516;2022-11-20T06:30:32;2.45;;;1.60;;
72904;SDS011;61048;52.162;4.516;2022-11-20T06:32:59;2.50;;;1.85;;
72904;SDS011;61048;52.162;4.516;2022-11-20T06:35:26;2.17;;;1.33;;
72904;SDS011;61048;52.162;4.516;2022-11-20T06:37:53;2.50;;;1.85;;
72904;SDS011;61048;52.162;4.516;2022-11-20T06:40:23;3.20;;;2.20;;
72904;SDS011;61048;52.162;4.516;2022-11-20T06:42:50;4.03;;;1.10;;
72904;SDS011;61048;52.162;4.516;2022-11-20T06:45:19;4.13;;;1.52;;
72904;SDS011;61048;52.162;4.516;2022-11-20T06:47:46;5.75;;;2.13;;
72904;SDS011;61048;52.162;4.516;2022-11-20T06:50:13;3.03;;;1.85;;
72904;SDS011;61048;52.162;4.516;2022-11-20T06:52:40;3.15;;;1.70;;
72904;SDS011;61048;52.162;4.516;2022-11-20T06:55:07;3.75;;;1.83;;
72904;SDS011;61048;52.162;4.516;2022-11-20T06:57:35;5.20;;;2.45;;
72904;SDS011;61048;52.162;4.516;2022-11-20T07:00:02;3.95;;;1.83;;
72904;SDS011;61048;52.162;4.516;2022-11-20T07:02:30;2.55;;;1.90;;
72904;SDS011;61048;52.162;4.516;2022-11-20T07:04:57;2.15;;;1.67;;
72904;SDS011;61048;52.162;4.516;2022-11-20T07:07:23;3.70;;;1.73;;
72904;SDS011;61048;52.162;4.516;2022-11-20T07:09:50;3.05;;;1.90;;
72904;SDS011;61048;52.162;4.516;2022-11-20T07:12:17;3.45;;;1.83;;
72904;SDS011;61048;52.162;4.516;2022-11-20T07:14:45;2.38;;;1.38;;
72904;SDS011;61048;52.162;4.516;2022-11-20T07:17:12;4.47;;;1.85;;
72904;SDS011;61048;52.162;4.516;2022-11-20T07:19:39;2.30;;;1.10;;
72904;SDS011;61048;52.162;4.516;2022-11-20T07:22:07;4.13;;;2.05;;
72904;SDS011;61048;52.162;4.516;2022-11-20T07:24:34;5.95;;;1.75;;
72904;SDS011;61048;52.162;4.516;2022-11-20T07:27:01;6.43;;;1.63;;
72904;SDS011;61048;52.162;4.516;2022-11-20T07:29:29;6.72;;;2.42;;
72904;SDS011;61048;52.162;4.516;2022-11-20T07:31:58;4.30;;;1.27;;
72904;SDS011;61048;52.162;4.516;2022-11-20T07:34:25;3.38;;;1.95;;
72904;SDS011;61048;52.162;4.516;2022-11-20T07:36:52;5.90;;;2.00;;
72904;SDS011;61048;52.162;4.516;2022-11-20T07:39:19;3.80;;;2.08;;
72904;SDS011;61048;52.162;4.516;2022-11-20T07:41:46;5.70;;;1.60;;
72904;SDS011;61048;52.162;4.516;2022-11-20T07:44:13;6.85;;;1.58;;
72904;SDS011;61048;52.162;4.516;2022-11-20T07:46:40;2.97;;;2.08;;
72904;SDS011;61048;52.162;4.516;2022-11-20T07:49:08;3.70;;;1.80;;
72904;SDS011;61048;52.162;4.516;2022-11-20T07:51:35;3.92;;;2.47;;
72904;SDS011;61048;52.162;4.516;2022-11-20T07:54:02;5.20;;;1.70;;
72904;SDS011;61048;52.162;4.516;2022-11-20T07:56:29;10.90;;;1.80;;
72904;SDS011;61048;52.162;4.516;2022-11-20T07:58:56;5.00;;;2.13;;
72904;SDS011;61048;52.162;4.516;2022-11-20T08:01:22;6.07;;;2.03;;
72904;SDS011;61048;52.162;4.516;2022-11-20T08:03:49;9.30;;;2.08;;
72904;SDS011;61048;52.162;4.516;2022-11-20T08:06:17;4.57;;;2.22;;
72904;SDS011;61048;52.162;4.516;2022-11-20T08:08:45;6.00;;;2.00;;
72904;SDS011;61048;52.162;4.516;2022-11-20T08:11:12;7.93;;;1.50;;
72904;SDS011;61048;52.162;4.516;2022-11-20T08:14:07;3.92;;;1.65;;
72904;SDS011;61048;52.162;4.516;2022-11-20T08:16:41;3.90;;;1.13;;
72904;SDS011;61048;52.162;4.516;2022-11-20T08:19:09;3.92;;;2.03;;
72904;SDS011;61048;52.162;4.516;2022-11-20T08:21:37;5.28;;;2.10;;
72904;SDS011;61048;52.162;4.516;2022-11-20T08:24:05;7.25;;;2.17;;
72904;SDS011;61048;52.162;4.516;2022-11-20T08:26:32;7.68;;;2.72;;
72904;SDS011;61048;52.162;4.516;2022-11-20T08:29:00;4.40;;;1.13;;
72904;SDS011;61048;52.162;4.516;2022-11-20T08:31:27;6.57;;;2.08;;
72904;SDS011;61048;52.162;4.516;2022-11-20T08:33:54;3.85;;;1.90;;
72904;SDS011;61048;52.162;4.516;2022-11-20T08:36:22;4.93;;;2.90;;
72904;SDS011;61048;52.162;4.516;2022-11-20T08:38:51;7.38;;;2.30;;
72904;SDS011;61048;52.162;4.516;2022-11-20T08:41:20;5.28;;;2.08;;
72904;SDS011;61048;52.162;4.516;2022-11-20T08:43:51;3.85;;;1.60;;
72904;SDS011;61048;52.162;4.516;2022-11-20T08:46:23;6.45;;;2.85;;
72904;SDS011;61048;52.162;4.516;2022-11-20T08:48:51;6.18;;;2.28;;
72904;SDS011;61048;52.162;4.516;2022-11-20T08:51:19;4.25;;;2.05;;
72904;SDS011;61048;52.162;4.516;2022-11-20T08:53:46;5.50;;;2.17;;
72904;SDS011;61048;52.162;4.516;2022-11-20T08:56:16;3.22;;;2.22;;
72904;SDS011;61048;52.162;4.516;2022-11-20T08:58:43;6.70;;;1.92;;
72904;SDS011;61048;52.162;4.516;2022-11-20T09:01:10;3.67;;;2.15;;
72904;SDS011;61048;52.162;4.516;2022-11-20T09:03:37;4.32;;;1.65;;
72904;SDS011;61048;52.162;4.516;2022-11-20T09:06:05;5.82;;;2.33;;
72904;SDS011;61048;52.162;4.516;2022-11-20T09:08:33;7.68;;;2.33;;
72904;SDS011;61048;52.162;4.516;2022-11-20T09:11:01;5.97;;;2.00;;
72904;SDS011;61048;52.162;4.516;2022-11-20T09:13:30;2.83;;;1.88;;
72904;SDS011;61048;52.162;4.516;2022-11-20T09:15:58;3.63;;;2.22;;
72904;SDS011;61048;52.162;4.516;2022-11-20T09:18:27;4.88;;;2.15;;
72904;SDS011;61048;52.162;4.516;2022-11-20T09:20:56;5.57;;;2.45;;
72904;SDS011;61048;52.162;4.516;2022-11-20T09:23:24;5.45;;;2.58;;
72904;SDS011;61048;52.162;4.516;2022-11-20T09:25:51;5.47;;;2.38;;
72904;SDS011;61048;52.162;4.516;2022-11-20T09:28:20;4.47;;;2.90;;
72904;SDS011;61048;52.162;4.516;2022-11-20T09:30:49;5.18;;;1.52;;
72904;SDS011;61048;52.162;4.516;2022-11-20T09:33:16;7.10;;;2.03;;
72904;SDS011;61048;52.162;4.516;2022-11-20T09:35:43;4.25;;;2.45;;
72904;SDS011;61048;52.162;4.516;2022-11-20T09:38:11;4.00;;;2.40;;
72904;SDS011;61048;52.162;4.516;2022-11-20T09:40:40;4.03;;;2.17;;
72904;SDS011;61048;52.162;4.516;2022-11-20T09:43:14;12.80;;;3.00;;
72904;SDS011;61048;52.162;4.516;2022-11-20T09:45:53;3.95;;;2.05;;
72904;SDS011;61048;52.162;4.516;2022-11-20T09:48:28;4.85;;;1.90;;
72904;SDS011;61048;52.162;4.516;2022-11-20T09:51:15;5.32;;;2.08;;
72904;SDS011;61048;52.162;4.516;2022-11-20T09:53:53;3.63;;;2.15;;
72904;SDS011;61048;52.162;4.516;2022-11-20T09:56:30;9.52;;;2.47;;
72904;SDS011;61048;52.162;4.516;2022-11-20T09:59:02;8.48;;;2.20;;
72904;SDS011;61048;52.162;4.516;2022-11-20T10:01:34;6.00;;;2.67;;
72904;SDS011;61048;52.162;4.516;2022-11-20T10:04:03;6.60;;;3.65;;
72904;SDS011;61048;52.162;4.516;2022-11-20T10:06:33;9.07;;;2.83;;
72904;SDS011;61048;52.162;4.516;2022-11-20T10:09:05;9.80;;;5.00;;
72904;SDS011;61048;52.162;4.516;2022-11-20T10:11:45;10.35;;;4.88;;
72904;SDS011;61048;52.162;4.516;2022-11-20T10:14:20;15.50;;;5.15;;
72904;SDS011;61048;52.162;4.516;2022-11-20T10:16:59;15.55;;;4.05;;
72904;SDS011;61048;52.162;4.516;2022-11-20T10:19:38;10.75;;;4.47;;
72904;SDS011;61048;52.162;4.516;2022-11-20T10:22:21;10.65;;;5.03;;
72904;SDS011;61048;52.162;4.516;2022-11-20T10:24:59;60.22;;;15.40;;
72904;SDS011;61048;52.162;4.516;2022-11-20T10:30:29;64.50;;;18.45;;
72904;SDS011;61048;52.162;4.516;2022-11-20T10:33:03;62.85;;;18.52;;
72904;SDS011;61048;52.162;4.516;2022-11-20T10:35:33;68.63;;;15.30;;
72904;SDS011;61048;52.162;4.516;2022-11-20T10:38:03;63.90;;;16.27;;
72904;SDS011;61048;52.162;4.516;2022-11-20T10:40:37;56.05;;;16.08;;
72904;SDS011;61048;52.162;4.516;2022-11-20T10:43:08;60.20;;;15.43;;
72904;SDS011;61048;52.162;4.516;2022-11-20T10:45:44;57.42;;;15.00;;
72904;SDS011;61048;52.162;4.516;2022-11-20T10:48:19;47.78;;;16.35;;
72904;SDS011;61048;52.162;4.516;2022-11-20T10:50:59;55.45;;;15.02;;
72904;SDS011;61048;52.162;4.516;2022-11-20T10:56:34;31.08;;;9.38;;
72904;SDS011;61048;52.162;4.516;2022-11-20T11:02:01;57.35;;;12.77;;
72904;SDS011;61048;52.162;4.516;2022-11-20T11:04:42;66.55;;;15.38;;
72904;SDS011;61048;52.162;4.516;2022-11-20T11:07:12;61.00;;;14.75;;
72904;SDS011;61048;52.162;4.516;2022-11-20T11:09:44;55.63;;;14.13;;
72904;SDS011;61048;52.162;4.516;2022-11-20T11:12:14;57.35;;;11.70;;
72904;SDS011;61048;52.162;4.516;2022-11-20T11:14:41;56.92;;;13.55;;
72904;SDS011;61048;52.162;4.516;2022-11-20T11:17:23;44.92;;;10.93;;
72904;SDS011;61048;52.162;4.516;2022-11-20T11:20:02;46.35;;;12.80;;
72904;SDS011;61048;52.162;4.516;2022-11-20T11:22:33;50.65;;;12.68;;
72904;SDS011;61048;52.162;4.516;2022-11-20T11:25:08;43.85;;;11.13;;
72904;SDS011;61048;52.162;4.516;2022-11-20T11:27:46;37.90;;;11.38;;
72904;SDS011;61048;52.162;4.516;2022-11-20T11:30:14;41.50;;;11.32;;
72904;SDS011;61048;52.162;4.516;2022-11-20T11:32:43;35.85;;;11.38;;
72904;SDS011;61048;52.162;4.516;2022-11-20T11:35:21;38.80;;;11.25;;
72904;SDS011;61048;52.162;4.516;2022-11-20T11:37:50;36.10;;;12.52;;
72904;SDS011;61048;52.162;4.516;2022-11-20T11:40:20;38.13;;;13.27;;
72904;SDS011;61048;52.162;4.516;2022-11-20T11:42:50;32.50;;;11.07;;
72904;SDS011;61048;52.162;4.516;2022-11-20T11:45:22;36.30;;;11.20;;
72904;SDS011;61048;52.162;4.516;2022-11-20T11:47:49;31.42;;;10.63;;
72904;SDS011;61048;52.162;4.516;2022-11-20T11:50:19;30.65;;;10.73;;
72904;SDS011;61048;52.162;4.516;2022-11-20T11:52:51;31.42;;;10.55;;
72904;SDS011;61048;52.162;4.516;2022-11-20T11:55:33;28.70;;;9.60;;
72904;SDS011;61048;52.162;4.516;2022-11-20T11:58:06;27.85;;;8.40;;
72904;SDS011;61048;52.162;4.516;2022-11-20T12:00:49;26.40;;;9.40;;
72904;SDS011;61048;52.162;4.516;2022-11-20T12:03:21;25.48;;;9.95;;
72904;SDS011;61048;52.162;4.516;2022-11-20T12:05:56;26.33;;;10.20;;
72904;SDS011;61048;52.162;4.516;2022-11-20T12:08:27;25.50;;;9.60;;
72904;SDS011;61048;52.162;4.516;2022-11-20T12:10:59;27.80;;;8.98;;
72904;SDS011;61048;52.162;4.516;2022-11-20T12:13:38;21.80;;;9.35;;
72904;SDS011;61048;52.162;4.516;2022-11-20T12:16:11;27.50;;;8.43;;
72904;SDS011;61048;52.162;4.516;2022-11-20T12:18:40;22.40;;;9.02;;
72904;SDS011;61048;52.162;4.516;2022-11-20T12:21:12;22.83;;;9.35;;
72904;SDS011;61048;52.162;4.516;2022-11-20T12:23:50;21.80;;;8.95;;
72904;SDS011;61048;52.162;4.516;2022-11-20T12:26:34;18.90;;;8.00;;
72904;SDS011;61048;52.162;4.516;2022-11-20T12:29:12;21.35;;;9.13;;
72904;SDS011;61048;52.162;4.516;2022-11-20T12:31:51;21.08;;;9.30;;
72904;SDS011;61048;52.162;4.516;2022-11-20T12:34:35;18.98;;;8.70;;
72904;SDS011;61048;52.162;4.516;2022-11-20T12:37:18;16.75;;;7.72;;
72904;SDS011;61048;52.162;4.516;2022-11-20T12:39:58;22.20;;;9.40;;
72904;SDS011;61048;52.162;4.516;2022-11-20T12:42:37;22.92;;;9.20;;
72904;SDS011;61048;52.162;4.516;2022-11-20T12:45:51;20.23;;;9.13;;
72904;SDS011;61048;52.162;4.516;2022-11-20T12:48:36;15.63;;;8.70;;
72904;SDS011;61048;52.162;4.516;2022-11-20T12:51:18;20.45;;;8.55;;
72904;SDS011;61048;52.162;4.516;2022-11-20T12:54:02;19.63;;;8.55;;
72904;SDS011;61048;52.162;4.516;2022-11-20T12:56:55;20.02;;;8.25;;
72904;SDS011;61048;52.162;4.516;2022-11-20T13:02:25;19.73;;;8.55;;
72904;SDS011;61048;52.162;4.516;2022-11-20T13:05:05;15.18;;;8.05;;
72904;SDS011;61048;52.162;4.516;2022-11-20T13:07:44;17.08;;;8.95;;
72904;SDS011;61048;52.162;4.516;2022-11-20T13:10:16;15.82;;;7.38;;
72904;SDS011;61048;52.162;4.516;2022-11-20T13:12:49;17.75;;;8.95;;
72904;SDS011;61048;52.162;4.516;2022-11-20T13:15:26;15.80;;;7.63;;
72904;SDS011;61048;52.162;4.516;2022-11-20T13:18:07;18.23;;;8.90;;
72904;SDS011;61048;52.162;4.516;2022-11-20T13:20:36;16.77;;;8.32;;
72904;SDS011;61048;52.162;4.516;2022-11-20T13:23:08;14.98;;;8.15;;
72904;SDS011;61048;52.162;4.516;2022-11-20T13:25:37;16.17;;;8.52;;
72904;SDS011;61048;52.162;4.516;2022-11-20T13:30:55;16.20;;;8.40;;
72904;SDS011;61048;52.162;4.516;2022-11-20T13:33:23;16.60;;;8.57;;
72904;SDS011;61048;52.162;4.516;2022-11-20T13:35:55;16.13;;;8.32;;
72904;SDS011;61048;52.162;4.516;2022-11-20T13:38:23;19.27;;;8.85;;
72904;SDS011;61048;52.162;4.516;2022-11-20T13:40:52;13.82;;;6.72;;
72904;SDS011;61048;52.162;4.516;2022-11-20T13:43:27;15.02;;;8.68;;
72904;SDS011;61048;52.162;4.516;2022-11-20T13:46:00;16.25;;;8.32;;
72904;SDS011;61048;52.162;4.516;2022-11-20T13:48:29;13.15;;;8.57;;
72904;SDS011;61048;52.162;4.516;2022-11-20T13:51:15;15.57;;;8.48;;
72904;SDS011;61048;52.162;4.516;2022-11-20T13:54:00;16.08;;;7.93;;
72904;SDS011;61048;52.162;4.516;2022-11-20T13:56:48;12.82;;;6.63;;
72904;SDS011;61048;52.162;4.516;2022-11-20T13:59:29;13.40;;;8.20;;
72904;SDS011;61048;52.162;4.516;2022-11-20T14:02:14;12.02;;;7.50;;
72904;SDS011;61048;52.162;4.516;2022-11-20T14:04:45;14.50;;;8.20;;
72904;SDS011;61048;52.162;4.516;2022-11-20T14:07:13;11.55;;;7.25;;
72904;SDS011;61048;52.162;4.516;2022-11-20T14:09:49;13.10;;;6.38;;
72904;SDS011;61048;52.162;4.516;2022-11-20T14:12:19;12.88;;;6.13;;
72904;SDS011;61048;52.162;4.516;2022-11-20T14:14:48;13.40;;;7.38;;
72904;SDS011;61048;52.162;4.516;2022-11-20T14:17:18;15.30;;;8.02;;
72904;SDS011;61048;52.162;4.516;2022-11-20T14:19:46;12.52;;;7.25;;
72904;SDS011;61048;52.162;4.516;2022-11-20T14:22:18;14.25;;;8.63;;
72904;SDS011;61048;52.162;4.516;2022-11-20T14:27:14;13.80;;;7.03;;
72904;SDS011;61048;52.162;4.516;2022-11-20T14:29:45;13.35;;;8.07;;
72904;SDS011;61048;52.162;4.516;2022-11-20T14:32:14;14.50;;;7.95;;
72904;SDS011;61048;52.162;4.516;2022-11-20T14:34:43;12.60;;;8.10;;
72904;SDS011;61048;52.162;4.516;2022-11-20T14:37:12;13.23;;;7.32;;
72904;SDS011;61048;52.162;4.516;2022-11-20T14:39:48;13.95;;;8.25;;
72904;SDS011;61048;52.162;4.516;2022-11-20T14:42:17;14.50;;;8.52;;
72904;SDS011;61048;52.162;4.516;2022-11-20T14:44:46;14.57;;;7.57;;
72904;SDS011;61048;52.162;4.516;2022-11-20T14:47:15;15.98;;;9.18;;
72904;SDS011;61048;52.162;4.516;2022-11-20T14:49:45;14.55;;;7.82;;
72904;SDS011;61048;52.162;4.516;2022-11-20T14:52:17;15.32;;;8.48;;
72904;SDS011;61048;52.162;4.516;2022-11-20T14:54:45;14.18;;;8.02;;
72904;SDS011;61048;52.162;4.516;2022-11-20T14:57:23;15.88;;;9.70;;
72904;SDS011;61048;52.162;4.516;2022-11-20T15:00:04;15.68;;;9.00;;
72904;SDS011;61048;52.162;4.516;2022-11-20T15:02:45;14.65;;;8.63;;
72904;SDS011;61048;52.162;4.516;2022-11-20T15:05:14;15.32;;;9.07;;
72904;SDS011;61048;52.162;4.516;2022-11-20T15:07:42;18.30;;;10.13;;
72904;SDS011;61048;52.162;4.516;2022-11-20T15:10:20;16.15;;;8.25;;
72904;SDS011;61048;52.162;4.516;2022-11-20T15:12:48;15.32;;;8.23;;
72904;SDS011;61048;52.162;4.516;2022-11-20T15:15:20;16.38;;;9.68;;
72904;SDS011;61048;52.162;4.516;2022-11-20T15:17:51;17.50;;;9.80;;